Lorraine — A8IZ3 — position and weather

sailwx.info

Track history (hours):
 
Tides and Currents Weather Stations Pressure Air Temp Water Temp Dewpoint Dewpoint Depression Visibility Wind Speed Wind Dir Waves Ship Positions

Lorraine

Last reported at 2016-Feb-09 15:03 UTC. Time now 2016-Feb-12 20:35 UTC.
Position N 21°58' E 114°25'.

Length 221 m; draft 9.8 m.

Type: Ship. MMSI: 636012905.

Date/timePositionNaut miles runAvg speedWind from/ knotsBaromVisibWave heightAir tempDewpointWater temp
2016-Feb-09 15:03N 21°58' E 114°25'712.9
2016-Feb-09 14:32N 22°04' E 114°22'1411.3
2016-Feb-09 13:20N 22°12' E 114°10'912.0
2016-Feb-09 12:34N 22°20' E 114°05'12 1.1
2016-Feb-09 01:29N 22°26' E 113°53'10 9.4
2016-Feb-09 00:27N 22°21' E 114°02'4 3.4
2016-Feb-08 23:24N 22°19' E 114°05'0 0.1
2016-Feb-08 22:24N 22°19' E 114°05'0 0.1
2016-Feb-08 21:33N 22°19' E 114°05'0 0.0
2016-Feb-08 20:33N 22°19' E 114°05'0 0.0
2016-Feb-08 19:33N 22°19' E 114°05'0 0.0
2016-Feb-08 18:33N 22°19' E 114°05'0 0.0
2016-Feb-08 17:32N 22°19' E 114°05'0 0.0
2016-Feb-08 16:33N 22°19' E 114°05'0 0.0
2016-Feb-08 15:32N 22°19' E 114°05'0 0.0
2016-Feb-08 14:32N 22°19' E 114°05'0 0.0
2016-Feb-08 13:33N 22°19' E 114°05'0 0.0
2016-Feb-08 12:33N 22°19' E 114°05'0 0.0
2016-Feb-08 11:33N 22°19' E 114°05'0 0.0
2016-Feb-08 10:33N 22°19' E 114°05'0 0.1
2016-Feb-08 09:33N 22°19' E 114°05'0 0.0
2016-Feb-08 08:33N 22°19' E 114°05'0 0.0
2016-Feb-08 07:33N 22°19' E 114°05'0 0.1
2016-Feb-08 06:33N 22°19' E 114°05'0 0.0
2016-Feb-08 05:33N 22°19' E 114°05'0 0.0
2016-Feb-08 04:33N 22°19' E 114°05'0 0.0
2016-Feb-08 03:33N 22°19' E 114°05'0 0.0
2016-Feb-08 02:33N 22°19' E 114°05'0 0.0
2016-Feb-08 01:33N 22°19' E 114°05'0 0.0
2016-Feb-08 00:33N 22°19' E 114°05'0 0.1
2016-Feb-07 23:33N 22°19' E 114°05'0 0.1
2016-Feb-07 22:33N 22°19' E 114°05'0 0.0
2016-Feb-07 21:33N 22°19' E 114°05'0 0.0
2016-Feb-07 20:33N 22°19' E 114°05'0 0.1
2016-Feb-07 19:33N 22°19' E 114°05'0 0.0
2016-Feb-07 18:33N 22°19' E 114°05'0 0.1
2016-Feb-07 17:30N 22°19' E 114°05'0 0.0
2016-Feb-07 16:34N 22°19' E 114°05'0 0.0
2016-Feb-07 15:32N 22°19' E 114°05'0 0.0
2016-Feb-07 14:32N 22°19' E 114°05'0 0.0
2016-Feb-07 13:31N 22°19' E 114°05'0 0.0
2016-Feb-07 12:31N 22°19' E 114°05'0 0.0
2016-Feb-07 11:33N 22°19' E 114°05'0 0.0
2016-Feb-07 10:33N 22°19' E 114°05'0 0.0
2016-Feb-07 09:32N 22°19' E 114°05'0 0.0
2016-Feb-07 08:32N 22°19' E 114°05'0 0.1
2016-Feb-07 07:31N 22°19' E 114°05'0 0.0
2016-Feb-07 06:31N 22°19' E 114°05'0 0.0
2016-Feb-07 05:25N 22°19' E 114°05'0 0.1
2016-Feb-07 04:33N 22°19' E 114°05'2 2.3
2016-Feb-07 03:28N 22°20' E 114°07'0 0.0
2016-Feb-07 02:30N 22°20' E 114°07'0 0.0
2016-Feb-07 01:33N 22°20' E 114°07'0 0.0
2016-Feb-07 00:33N 22°20' E 114°07'0 0.0
2016-Feb-06 23:20N 22°20' E 114°07'0 0.0
2016-Feb-06 22:32N 22°20' E 114°07'0 0.0
2016-Feb-06 21:31N 22°20' E 114°07'0 0.0
2016-Feb-06 20:31N 22°20' E 114°07'0 0.0
2016-Feb-06 19:31N 22°20' E 114°07'0 0.0
2016-Feb-06 18:30N 22°20' E 114°07'1 1.3
2016-Feb-06 17:33N 22°19' E 114°07'  
2016-Feb-03 05:03N 34°56' E 120°03'243 4.7
2016-Feb-01 01:21N 38°39' E 122°07'20 1.8
2016-Jan-31 14:25N 38°57' E 121°57'8 9.4
2016-Jan-31 13:33N 38°49' E 121°54'1413.1
2016-Jan-31 12:31N 38°36' E 121°48'1716.9
2016-Jan-31 11:30N 38°28' E 121°29'16616.4
2016-Jan-31 01:23N 38°56' E 117°60'1011.7
2016-Jan-31 00:33N 38°59' E 117°48'1 0.9
2016-Jan-30 23:31N 38°59' E 117°47'0 0.0
2016-Jan-30 22:30N 38°59' E 117°47'0 0.0
2016-Jan-30 21:24N 38°59' E 117°47'0 0.0
2016-Jan-30 20:24N 38°59' E 117°47'0 0.0
2016-Jan-30 19:17N 38°59' E 117°47'0 0.1
2016-Jan-30 18:29N 38°59' E 117°47'0 0.0
2016-Jan-30 17:28N 38°59' E 117°47'0 0.0
2016-Jan-30 16:28N 38°59' E 117°47'0 0.0
2016-Jan-30 15:27N 38°59' E 117°47'  
Track history (hours):
 
Tides and Currents Weather Stations Pressure Air Temp Water Temp Dewpoint Dewpoint Depression Visibility Wind Speed Wind Dir Waves Ship Positions

Lorraine

Last reported at 2016-Feb-09 15:03 UTC. Time now 2016-Feb-12 20:35 UTC.
Position N 21°58' E 114°25'.

Length 221 m; draft 9.8 m.

Type: Ship. MMSI: 636012905.

Date/timePositionNaut miles runAvg speedWind from/ knotsBaromVisibWave heightAir tempDewpointWater temp
2016-Feb-09 15:03N 21°58' E 114°25'712.9
2016-Feb-09 14:32N 22°04' E 114°22'1411.3
2016-Feb-09 13:20N 22°12' E 114°10'912.0
2016-Feb-09 12:34N 22°20' E 114°05'12 1.1
2016-Feb-09 01:29N 22°26' E 113°53'10 9.4
2016-Feb-09 00:27N 22°21' E 114°02'4 3.4
2016-Feb-08 23:24N 22°19' E 114°05'0 0.1
2016-Feb-08 22:24N 22°19' E 114°05'0 0.1
2016-Feb-08 21:33N 22°19' E 114°05'0 0.0
2016-Feb-08 20:33N 22°19' E 114°05'0 0.0
2016-Feb-08 19:33N 22°19' E 114°05'0 0.0
2016-Feb-08 18:33N 22°19' E 114°05'0 0.0
2016-Feb-08 17:32N 22°19' E 114°05'0 0.0
2016-Feb-08 16:33N 22°19' E 114°05'0 0.0
2016-Feb-08 15:32N 22°19' E 114°05'0 0.0
2016-Feb-08 14:32N 22°19' E 114°05'0 0.0
2016-Feb-08 13:33N 22°19' E 114°05'0 0.0
2016-Feb-08 12:33N 22°19' E 114°05'0 0.0
2016-Feb-08 11:33N 22°19' E 114°05'0 0.0
2016-Feb-08 10:33N 22°19' E 114°05'0 0.1
2016-Feb-08 09:33N 22°19' E 114°05'0 0.0
2016-Feb-08 08:33N 22°19' E 114°05'0 0.0
2016-Feb-08 07:33N 22°19' E 114°05'0 0.1
2016-Feb-08 06:33N 22°19' E 114°05'0 0.0
2016-Feb-08 05:33N 22°19' E 114°05'0 0.0
2016-Feb-08 04:33N 22°19' E 114°05'0 0.0
2016-Feb-08 03:33N 22°19' E 114°05'0 0.0
2016-Feb-08 02:33N 22°19' E 114°05'0 0.0
2016-Feb-08 01:33N 22°19' E 114°05'0 0.0
2016-Feb-08 00:33N 22°19' E 114°05'0 0.1
2016-Feb-07 23:33N 22°19' E 114°05'0 0.1
2016-Feb-07 22:33N 22°19' E 114°05'0 0.0
2016-Feb-07 21:33N 22°19' E 114°05'0 0.0
2016-Feb-07 20:33N 22°19' E 114°05'0 0.1
2016-Feb-07 19:33N 22°19' E 114°05'0 0.0
2016-Feb-07 18:33N 22°19' E 114°05'0 0.1
2016-Feb-07 17:30N 22°19' E 114°05'0 0.0
2016-Feb-07 16:34N 22°19' E 114°05'0 0.0
2016-Feb-07 15:32N 22°19' E 114°05'0 0.0
2016-Feb-07 14:32N 22°19' E 114°05'0 0.0
2016-Feb-07 13:31N 22°19' E 114°05'0 0.0
2016-Feb-07 12:31N 22°19' E 114°05'0 0.0
2016-Feb-07 11:33N 22°19' E 114°05'0 0.0
2016-Feb-07 10:33N 22°19' E 114°05'0 0.0
2016-Feb-07 09:32N 22°19' E 114°05'0 0.0
2016-Feb-07 08:32N 22°19' E 114°05'0 0.1
2016-Feb-07 07:31N 22°19' E 114°05'0 0.0
2016-Feb-07 06:31N 22°19' E 114°05'0 0.0
2016-Feb-07 05:25N 22°19' E 114°05'0 0.1
2016-Feb-07 04:33N 22°19' E 114°05'2 2.3
2016-Feb-07 03:28N 22°20' E 114°07'0 0.0
2016-Feb-07 02:30N 22°20' E 114°07'0 0.0
2016-Feb-07 01:33N 22°20' E 114°07'0 0.0
2016-Feb-07 00:33N 22°20' E 114°07'0 0.0
2016-Feb-06 23:20N 22°20' E 114°07'0 0.0
2016-Feb-06 22:32N 22°20' E 114°07'0 0.0
2016-Feb-06 21:31N 22°20' E 114°07'0 0.0
2016-Feb-06 20:31N 22°20' E 114°07'0 0.0
2016-Feb-06 19:31N 22°20' E 114°07'0 0.0
2016-Feb-06 18:30N 22°20' E 114°07'1 1.3
2016-Feb-06 17:33N 22°19' E 114°07'  
2016-Feb-03 05:03N 34°56' E 120°03'243 4.7
2016-Feb-01 01:21N 38°39' E 122°07'20 1.8
2016-Jan-31 14:25N 38°57' E 121°57'8 9.4
2016-Jan-31 13:33N 38°49' E 121°54'1413.1
2016-Jan-31 12:31N 38°36' E 121°48'1716.9
2016-Jan-31 11:30N 38°28' E 121°29'16616.4
2016-Jan-31 01:23N 38°56' E 117°60'1011.7
2016-Jan-31 00:33N 38°59' E 117°48'1 0.9
2016-Jan-30 23:31N 38°59' E 117°47'0 0.0
2016-Jan-30 22:30N 38°59' E 117°47'0 0.0
2016-Jan-30 21:24N 38°59' E 117°47'0 0.0
2016-Jan-30 20:24N 38°59' E 117°47'0 0.0
2016-Jan-30 19:17N 38°59' E 117°47'0 0.1
2016-Jan-30 18:29N 38°59' E 117°47'0 0.0
2016-Jan-30 17:28N 38°59' E 117°47'0 0.0
2016-Jan-30 16:28N 38°59' E 117°47'0 0.0
2016-Jan-30 15:27N 38°59' E 117°47'  

Dump ship's entire track history